Time;durP1;ratioP1;P1;durP2;ratioP2;P2;SDS_P1;SDS_P2;PMS_P1;PMS_P2;Temp;Humidity;BMP_temperature;BMP_pressure;BME280_temperature;BME280_humidity;BME280_pressure;Samples;Min_cycle;Max_cycle;Signal;HPM_P1;HPM_P2
2024/04/05 00:00:54;;;;;;;1.55;0.80;;;;;;;17.77;37.97;98993.72;5011069;28;20045;-78
2024/04/05 00:03:19;;;;;;;2.05;0.80;;;;;;;17.75;38.12;98993.06;5011747;28;20141;-78
2024/04/05 00:05:45;;;;;;;1.55;0.60;;;;;;;17.76;38.19;98986.81;4995604;28;20401;-79
2024/04/05 00:08:10;;;;;;;1.48;0.80;;;;;;;17.76;37.99;98991.25;5011200;28;20037;-78
2024/04/05 00:10:35;;;;;;;2.88;0.88;;;;;;;17.77;38.02;98998.19;5028136;28;20517;-78
2024/04/05 00:13:01;;;;;;;5.45;0.80;;;;;;;17.77;38.05;98999.00;5011448;28;20041;-79
2024/04/05 00:15:26;;;;;;;1.98;0.90;;;;;;;17.76;37.98;98994.75;4995254;28;20034;-78
2024/04/05 00:17:52;;;;;;;2.65;0.88;;;;;;;17.72;38.06;98988.91;5028010;28;20030;-78
2024/04/05 00:20:17;;;;;;;1.85;0.80;;;;;;;17.71;38.04;98989.06;5010858;28;20037;-78
2024/04/05 00:22:43;;;;;;;3.33;0.90;;;;;;;17.73;38.00;98990.59;5011743;28;20042;-78
2024/04/05 00:25:08;;;;;;;1.00;0.60;;;;;;;17.69;38.14;98991.06;5011154;28;20037;-78
2024/04/05 00:27:34;;;;;;;1.70;0.70;;;;;;;17.72;38.11;98993.38;5027021;28;20134;-77
2024/04/05 00:30:03;;;;;;;2.65;0.73;;;;;;;17.70;38.10;98990.09;5011359;28;20048;-75
2024/04/05 00:32:29;;;;;;;1.65;0.60;;;;;;;17.68;37.96;98990.25;5026339;28;20517;-77
2024/04/05 00:34:54;;;;;;;1.52;0.80;;;;;;;17.67;37.80;98978.00;5026897;28;20042;-78
2024/04/05 00:37:20;;;;;;;2.38;0.80;;;;;;;17.65;37.91;98981.81;5027251;28;20034;-77
2024/04/05 00:39:45;;;;;;;2.33;0.63;;;;;;;17.68;38.08;98990.25;5011017;28;20477;-77
2024/04/05 00:42:11;;;;;;;3.50;0.95;;;;;;;17.65;37.97;98984.44;5014020;28;20034;-76
2024/04/05 00:44:36;;;;;;;2.05;0.60;;;;;;;17.60;37.97;98974.34;5015408;28;20030;-76
2024/04/05 00:47:02;;;;;;;2.10;0.80;;;;;;;17.62;38.04;98979.47;5030880;28;20080;-78
2024/04/05 00:49:27;;;;;;;2.35;0.88;;;;;;;17.58;37.97;98978.94;5012953;28;20669;-76
2024/04/05 00:51:53;;;;;;;2.17;0.90;;;;;;;17.60;37.91;98989.34;5013797;28;20060;-78
2024/04/05 00:54:19;;;;;;;2.28;0.68;;;;;;;17.57;38.01;98979.09;5030405;28;20038;-76
2024/04/05 00:56:45;;;;;;;1.95;0.80;;;;;;;17.55;38.10;98981.91;5014498;28;20134;-78
2024/04/05 00:59:10;;;;;;;4.85;0.82;;;;;;;17.53;37.94;98975.94;5030955;28;20034;-76
2024/04/05 01:01:37;;;;;;;2.60;0.80;;;;;;;17.47;38.35;98982.69;5015207;28;20129;-77
2024/04/05 01:04:03;;;;;;;4.93;0.95;;;;;;;17.49;38.42;98990.44;5030367;28;20358;-79
2024/04/05 01:06:28;;;;;;;2.28;0.90;;;;;;;17.48;38.60;98988.78;5031248;28;20116;-76
2024/04/05 01:08:54;;;;;;;2.58;0.73;;;;;;;17.46;38.63;98985.50;4997834;28;20042;-78
2024/04/05 01:11:19;;;;;;;5.88;1.05;;;;;;;17.43;38.83;98985.81;5033020;28;20472;-77
2024/04/05 01:13:47;;;;;;;3.00;0.90;;;;;;;17.40;38.91;98997.47;5050012;28;20048;-77
2024/04/05 01:16:13;;;;;;;2.80;0.80;;;;;;;17.34;39.00;98988.34;5017417;28;20543;-77
2024/04/05 01:18:38;;;;;;;1.63;0.70;;;;;;;17.37;38.80;98992.50;5032679;28;20129;-80
2024/04/05 01:21:04;;;;;;;1.95;0.80;;;;;;;17.31;38.80;98987.84;5030256;28;20053;-79
2024/04/05 01:23:29;;;;;;;4.93;1.25;;;;;;;17.31;38.95;98999.22;5049228;28;20129;-77
2024/04/05 01:25:57;;;;;;;1.85;0.52;;;;;;;17.31;38.88;98999.22;5016199;28;20569;-77
2024/04/05 01:28:22;;;;;;;1.42;0.70;;;;;;;17.29;38.73;99005.66;5032786;28;20018;-78
2024/04/05 01:30:48;;;;;;;1.70;0.80;;;;;;;17.23;38.84;99003.63;5016099;28;20187;-78
2024/04/05 01:33:13;;;;;;;2.53;0.75;;;;;;;17.25;38.93;99009.56;5032540;28;20055;-77
2024/04/05 01:35:39;;;;;;;1.15;0.55;;;;;;;17.23;38.79;99011.53;5032983;28;20033;-77
2024/04/05 01:38:04;;;;;;;3.13;0.68;;;;;;;17.15;38.80;99007.84;5032601;28;20025;-77
2024/04/05 01:40:30;;;;;;;1.23;0.63;;;;;;;17.18;38.71;99012.81;5033340;28;20049;-78
2024/04/05 01:42:55;;;;;;;2.17;0.82;;;;;;;17.15;38.93;99015.75;5034063;28;20452;-78
2024/04/05 01:45:21;;;;;;;2.55;0.70;;;;;;;17.10;38.85;99007.47;5032368;28;20041;-77
2024/04/05 01:47:46;;;;;;;3.92;0.93;;;;;;;17.11;38.77;99019.69;5049581;28;20033;-77
2024/04/05 01:50:13;;;;;;;1.80;0.50;;;;;;;17.10;38.80;99015.38;5032854;28;20104;-78
2024/04/05 01:52:39;;;;;;;1.85;0.82;;;;;;;17.08;38.88;99017.34;5049920;28;20042;-78
2024/04/05 01:55:04;;;;;;;2.22;0.55;;;;;;;17.07;38.94;99014.88;5032351;28;20037;-77
2024/04/05 01:57:33;;;;;;;1.08;0.57;;;;;;;17.04;38.88;99026.53;5016465;28;20057;-78
2024/04/05 01:59:58;;;;;;;2.55;0.80;;;;;;;17.04;38.71;99023.09;5016121;28;20031;-77
2024/04/05 02:02:24;;;;;;;2.85;0.50;;;;;;;17.03;38.80;99024.06;5016196;28;20061;-77
2024/04/05 02:04:52;;;;;;;2.28;0.60;;;;;;;16.98;38.82;99019.22;5033049;28;20477;-77
2024/04/05 02:07:24;;;;;;;2.63;0.77;;;;;;;16.96;38.71;99015.94;5032809;28;20556;-77
2024/04/05 02:09:50;;;;;;;3.60;0.88;;;;;;;16.98;39.00;99021.88;5033101;28;20131;-77
2024/04/05 02:12:16;;;;;;;1.20;0.77;;;;;;;16.94;39.01;99020.53;5033291;28;20061;-77
2024/04/05 02:14:42;;;;;;;1.35;0.75;;;;;;;16.94;39.34;99026.63;5015502;28;20042;-77
2024/04/05 02:17:07;;;;;;;1.17;0.60;;;;;;;16.92;39.27;99025.97;5033344;28;20033;-78
2024/04/05 02:19:33;;;;;;;3.55;0.90;;;;;;;16.89;39.45;99020.13;5016608;28;20087;-78
2024/04/05 02:21:58;;;;;;;2.15;0.50;;;;;;;16.85;39.60;99013.50;5033275;28;20036;-77
2024/04/05 02:24:24;;;;;;;2.38;0.70;;;;;;;16.83;39.59;99022.38;5033007;28;20022;-78
2024/04/05 02:26:50;;;;;;;0.70;0.45;;;;;;;16.81;39.75;99011.16;5015341;28;20493;-78
2024/04/05 02:29:16;;;;;;;4.72;0.70;;;;;;;16.79;39.71;99007.00;5032607;28;20087;-78
2024/04/05 02:31:41;;;;;;;2.38;0.75;;;;;;;16.78;39.83;99022.00;5016858;28;20038;-77
2024/04/05 02:34:07;;;;;;;1.75;0.70;;;;;;;16.77;39.77;99025.59;5032961;28;20044;-78
2024/04/05 02:36:32;;;;;;;2.33;0.73;;;;;;;16.76;39.79;99029.22;5032063;28;20025;-77
2024/04/05 02:38:58;;;;;;;1.65;0.70;;;;;;;16.73;39.80;99026.91;5015338;28;20397;-77
2024/04/05 02:41:23;;;;;;;1.60;0.70;;;;;;;16.69;39.96;99019.44;5032675;28;20029;-78
2024/04/05 02:43:49;;;;;;;2.30;0.70;;;;;;;16.72;39.91;99027.03;5032578;28;20033;-77
2024/04/05 02:46:14;;;;;;;4.97;0.98;;;;;;;16.67;39.93;99016.94;5032325;28;20401;-77
2024/04/05 02:48:40;;;;;;;1.45;0.70;;;;;;;16.71;40.01;99022.75;5032731;28;20042;-77
2024/04/05 02:51:06;;;;;;;1.30;0.73;;;;;;;16.66;39.98;99020.56;5014672;28;20083;-77
2024/04/05 02:53:31;;;;;;;1.65;0.70;;;;;;;16.66;39.94;99015.28;5031525;28;20493;-76
2024/04/05 02:55:58;;;;;;;1.70;0.70;;;;;;;16.63;39.86;99012.94;5031882;28;20036;-77
2024/04/05 02:58:23;;;;;;;1.70;0.70;;;;;;;16.65;40.10;99029.41;5031697;28;20115;-77
2024/04/05 03:00:54;;;;;;;1.70;0.80;;;;;;;16.67;40.06;99026.63;5048634;28;20045;-78
2024/04/05 03:03:20;;;;;;;4.47;0.80;;;;;;;16.62;40.20;99020.03;5032652;28;20099;-76
2024/04/05 03:05:45;;;;;;;1.88;0.85;;;;;;;16.64;40.09;99030.41;5032089;28;20033;-76
2024/04/05 03:08:11;;;;;;;2.60;0.63;;;;;;;16.61;40.22;99028.09;5033664;28;20030;-77
2024/04/05 03:10:36;;;;;;;1.10;0.65;;;;;;;16.56;40.34;99033.78;5048627;28;20041;-77
2024/04/05 03:13:01;;;;;;;1.13;0.60;;;;;;;16.57;40.44;99040.72;5032046;28;20026;-77
2024/04/05 03:15:28;;;;;;;1.92;1.00;;;;;;;16.56;40.54;99043.53;5032090;28;20468;-77
2024/04/05 03:17:53;;;;;;;1.98;0.80;;;;;;;16.54;40.58;99041.03;5032725;28;20087;-76
2024/04/05 03:20:18;;;;;;;1.50;0.60;;;;;;;16.53;40.61;99043.81;5032922;28;20037;-77
2024/04/05 03:22:44;;;;;;;4.53;1.17;;;;;;;16.44;40.74;99032.34;5031931;28;20029;-77
2024/04/05 03:25:09;;;;;;;1.55;0.77;;;;;;;16.44;40.95;99038.44;5031467;28;20033;-77
2024/04/05 03:27:35;;;;;;;0.93;0.52;;;;;;;16.47;40.93;99047.84;5032515;28;20049;-77
2024/04/05 03:30:02;;;;;;;1.60;0.55;;;;;;;16.46;40.97;99062.00;5031446;28;20479;-77
2024/04/05 03:32:27;;;;;;;1.60;0.60;;;;;;;16.44;41.03;99056.03;5031342;28;20029;-78
2024/04/05 03:34:54;;;;;;;3.85;0.77;;;;;;;16.43;41.13;99060.50;5015300;28;20044;-78
2024/04/05 03:37:19;;;;;;;1.25;0.63;;;;;;;16.43;41.00;99057.88;5029290;28;20083;-77
2024/04/05 03:39:46;;;;;;;2.42;0.77;;;;;;;16.40;40.97;99060.78;5033126;28;20056;-79
2024/04/05 03:42:12;;;;;;;1.80;0.70;;;;;;;16.37;40.81;99055.81;5012441;28;20429;-77
2024/04/05 03:44:37;;;;;;;2.25;0.80;;;;;;;16.43;40.99;99063.13;5028283;28;20057;-77
2024/04/05 03:47:03;;;;;;;1.63;0.63;;;;;;;16.45;40.82;99069.06;5012324;28;20497;-77
2024/04/05 03:49:28;;;;;;;3.67;0.70;;;;;;;16.47;40.83;99063.66;5011748;28;20046;-79
2024/04/05 03:51:57;;;;;;;4.68;1.20;;;;;;;16.90;59.20;99064.00;5011409;28;20026;-76
2024/04/05 03:54:22;;;;;;;6.32;0.98;;;;;;;17.28;58.90;99067.31;5013405;28;20497;-77
2024/04/05 03:56:48;;;;;;;2.10;0.90;;;;;;;17.65;53.36;99074.22;5034194;28;20097;-78
2024/04/05 03:59:13;;;;;;;4.68;1.13;;;;;;;17.95;50.20;99074.72;5016806;28;20041;-79
2024/04/05 04:01:39;;;;;;;5.90;0.90;;;;;;;18.35;47.34;99078.59;5010777;28;20050;-77
2024/04/05 04:04:05;;;;;;;9.30;1.02;;;;;;;18.82;45.13;99078.09;5011200;28;20552;-80
2024/04/05 04:06:30;;;;;;;3.85;0.88;;;;;;;19.35;42.98;99076.00;5027665;28;20391;-81
2024/04/05 04:08:56;;;;;;;3.70;1.00;;;;;;;19.93;40.42;99086.59;5011219;28;20125;-80
2024/04/05 04:11:21;;;;;;;3.55;0.93;;;;;;;20.67;44.24;99081.91;5011392;28;20440;-79
2024/04/05 04:13:47;;;;;;;9.32;1.08;;;;;;;21.42;39.32;99084.88;5027188;28;20041;-81
2024/04/05 04:16:12;;;;;;;9.73;1.13;;;;;;;22.29;38.67;99089.69;5028502;28;20030;-79
2024/04/05 04:18:38;;;;;;;3.55;0.82;;;;;;;22.97;35.95;99094.81;5027804;28;20383;-78
2024/04/05 04:21:05;;;;;;;3.40;0.80;;;;;;;23.66;33.96;99091.59;5012646;28;20401;-79
2024/04/05 04:23:31;;;;;;;3.25;0.80;;;;;;;24.46;38.18;99090.47;5028024;28;20049;-79
2024/04/05 04:25:56;;;;;;;6.05;1.02;;;;;;;25.57;37.00;99092.00;5016202;28;20030;-74
2024/04/05 04:28:22;;;;;;;9.70;0.90;;;;;;;26.67;36.05;99092.19;5028255;28;20034;-75
2024/04/05 04:30:48;;;;;;;10.93;1.35;;;;;;;27.75;34.44;99097.69;5011879;28;20120;-77
2024/04/05 04:33:14;;;;;;;6.55;0.85;;;;;;;28.60;31.32;99090.84;4994806;28;20484;-74
2024/04/05 04:35:46;;;;;;;3.50;0.98;;;;;;;29.54;27.77;99101.91;5009804;28;20049;-72
2024/04/05 04:38:15;;;;;;;2.30;0.90;;;;;;;30.20;24.84;99107.19;5026493;28;20481;-72
2024/04/05 04:40:41;;;;;;;6.35;1.30;;;;;;;30.64;23.30;99104.06;5027562;28;20453;-71
2024/04/05 04:43:06;;;;;;;4.70;1.25;;;;;;;31.29;22.10;99113.63;5026685;28;20045;-72
2024/04/05 04:45:32;;;;;;;5.00;1.20;;;;;;;31.81;21.10;99115.31;5026619;28;20493;-71
2024/04/05 04:47:58;;;;;;;4.97;1.30;;;;;;;32.41;20.19;99124.50;5009901;28;20050;-72
2024/04/05 04:50:24;;;;;;;6.18;1.05;;;;;;;32.91;19.48;99117.28;5010687;28;20121;-73
2024/04/05 04:52:50;;;;;;;2.63;0.90;;;;;;;33.44;18.95;99120.22;5027113;28;20105;-74
2024/04/05 04:55:16;;;;;;;3.33;1.00;;;;;;;34.00;18.21;99122.56;5026536;28;20382;-72
2024/04/05 04:57:42;;;;;;;3.47;1.10;;;;;;;34.46;17.60;99126.59;5026838;28;20026;-72
2024/04/05 05:00:08;;;;;;;5.43;0.80;;;;;;;34.83;17.28;99131.09;5010722;28;20030;-73
2024/04/05 05:02:34;;;;;;;4.07;0.90;;;;;;;35.23;17.03;99124.09;4993383;28;20050;-73
2024/04/05 05:04:59;;;;;;;4.10;0.90;;;;;;;35.69;16.86;99126.81;5027224;28;20080;-73
2024/04/05 05:07:25;;;;;;;2.60;0.90;;;;;;;36.08;16.45;99122.72;5010665;28;20034;-71
2024/04/05 05:09:50;;;;;;;6.22;1.00;;;;;;;36.44;15.94;99134.28;5026953;28;20104;-70
2024/04/05 05:12:15;;;;;;;3.97;0.70;;;;;;;36.77;15.25;99132.00;5026750;28;20092;-72
2024/04/05 05:14:41;;;;;;;1.63;0.50;;;;;;;37.07;14.91;99136.44;5007462;28;20022;-72
2024/04/05 05:17:07;;;;;;;1.35;0.50;;;;;;;37.42;14.65;99134.56;5024680;28;20082;-74
2024/04/05 05:19:32;;;;;;;5.57;0.70;;;;;;;37.69;14.51;99129.75;5024648;28;20029;-73
2024/04/05 05:21:58;;;;;;;2.78;0.40;;;;;;;37.91;14.00;99127.31;5007837;28;20045;-73
2024/04/05 05:24:23;;;;;;;1.77;0.50;;;;;;;38.16;13.75;99131.72;5024214;28;20401;-71
2024/04/05 05:26:49;;;;;;;2.53;0.55;;;;;;;38.40;13.57;99135.50;5008324;28;20125;-72
2024/04/05 05:29:14;;;;;;;2.88;0.60;;;;;;;38.56;13.61;99136.94;5010356;28;20123;-70
2024/04/05 05:31:40;;;;;;;1.08;0.35;;;;;;;38.80;13.36;99134.19;5013738;28;20026;-70
2024/04/05 05:34:06;;;;;;;2.53;0.47;;;;;;;38.94;13.34;99126.09;5013662;28;20421;-70
2024/04/05 05:36:31;;;;;;;5.38;0.50;;;;;;;39.17;12.91;99131.75;5013732;28;20026;-71
2024/04/05 05:38:57;;;;;;;1.00;0.40;;;;;;;39.31;12.66;99129.09;5029813;28;20033;-71
2024/04/05 05:41:22;;;;;;;2.47;0.68;;;;;;;39.50;12.54;99132.56;4996933;28;20033;-71
2024/04/05 05:43:48;;;;;;;1.38;0.40;;;;;;;39.62;12.32;99132.16;5013558;28;20060;-72
2024/04/05 05:46:14;;;;;;;1.48;0.55;;;;;;;39.77;12.44;99128.31;5013472;28;20033;-71
2024/04/05 05:48:39;;;;;;;3.40;0.60;;;;;;;39.91;12.30;99136.53;5029593;28;20030;-70
2024/04/05 05:51:05;;;;;;;1.48;0.55;;;;;;;40.04;12.30;99126.75;5013705;28;20026;-70
2024/04/05 05:53:30;;;;;;;1.52;0.40;;;;;;;40.12;12.32;99137.81;5013232;28;20037;-71
2024/04/05 05:55:56;;;;;;;1.85;0.47;;;;;;;40.18;12.25;99135.75;5013482;28;20022;-71
2024/04/05 05:58:21;;;;;;;1.13;0.47;;;;;;;40.19;12.46;99136.59;5013884;28;20030;-71
2024/04/05 06:00:47;;;;;;;1.40;0.45;;;;;;;40.22;12.29;99130.50;5014684;28;20050;-71
2024/04/05 06:03:13;;;;;;;0.93;0.40;;;;;;;40.29;12.08;99130.91;5029520;28;20041;-71
2024/04/05 06:05:38;;;;;;;0.75;0.30;;;;;;;40.38;12.01;99139.22;5029864;28;20030;-70
2024/04/05 06:08:04;;;;;;;1.13;0.45;;;;;;;40.39;12.17;99141.63;5013175;28;20033;-72
2024/04/05 06:10:30;;;;;;;0.88;0.30;;;;;;;40.44;12.09;99135.28;5013457;28;20485;-70
2024/04/05 06:12:55;;;;;;;1.17;0.32;;;;;;;40.48;12.29;99136.28;5029401;28;20080;-71
2024/04/05 06:15:21;;;;;;;1.85;0.30;;;;;;;40.45;12.09;99134.94;5029405;28;20045;-71
2024/04/05 06:17:46;;;;;;;1.77;0.43;;;;;;;40.49;12.27;99133.22;5014354;28;20504;-70
2024/04/05 06:20:12;;;;;;;1.33;0.30;;;;;;;40.50;11.85;99137.59;5029372;28;20030;-71
2024/04/05 06:22:38;;;;;;;1.20;0.30;;;;;;;40.51;11.76;99141.13;5013925;28;20500;-72
2024/04/05 06:25:04;;;;;;;0.80;0.20;;;;;;;40.55;11.90;99138.59;4997067;28;20137;-72
2024/04/05 06:27:30;;;;;;;4.45;0.40;;;;;;;40.59;11.76;99143.13;5012518;28;20111;-72
2024/04/05 06:29:56;;;;;;;0.65;0.20;;;;;;;40.61;12.07;99151.03;5013044;28;20442;-71
2024/04/05 06:32:22;;;;;;;3.95;0.40;;;;;;;40.54;12.04;99143.25;4995488;28;20041;-72
2024/04/05 06:34:47;;;;;;;0.98;0.30;;;;;;;40.59;11.91;99145.06;5012174;28;20053;-71
2024/04/05 06:37:13;;;;;;;0.55;0.30;;;;;;;40.65;11.91;99155.59;5028798;28;20061;-71
2024/04/05 06:39:40;;;;;;;1.17;0.20;;;;;;;40.67;11.99;99141.59;5011059;28;20061;-71
2024/04/05 06:42:06;;;;;;;1.52;0.20;;;;;;;40.68;11.80;99146.78;4995660;28;20033;-71
2024/04/05 06:44:35;;;;;;;1.73;0.23;;;;;;;40.73;11.96;99154.06;5012571;28;20129;-72
2024/04/05 06:47:10;;;;;;;0.90;0.20;;;;;;;40.70;12.08;99152.75;5012138;28;20041;-72
2024/04/05 06:49:37;;;;;;;0.52;0.20;;;;;;;40.56;11.95;99149.22;4995180;28;20049;-72
2024/04/05 06:52:04;;;;;;;1.13;0.30;;;;;;;40.67;12.02;99152.56;5027602;28;20042;-71
2024/04/05 06:54:34;;;;;;;0.68;0.38;;;;;;;40.75;12.22;99151.00;5012081;28;20038;-71
2024/04/05 06:56:59;;;;;;;1.50;0.50;;;;;;;40.79;12.01;99150.09;5011162;28;20030;-72
2024/04/05 06:59:25;;;;;;;0.57;0.22;;;;;;;40.80;11.94;99159.09;5011176;28;20052;-72
2024/04/05 07:01:52;;;;;;;1.02;0.30;;;;;;;40.67;12.40;99158.81;5027718;28;20608;-72
2024/04/05 07:04:22;;;;;;;1.75;0.38;;;;;;;40.76;12.32;99164.41;5011184;28;20038;-71
2024/04/05 07:06:48;;;;;;;1.35;0.30;;;;;;;40.81;12.11;99161.53;4996613;28;20048;-71
2024/04/05 07:09:14;;;;;;;3.70;0.50;;;;;;;40.30;12.56;99168.88;5010541;28;20026;-71
2024/04/05 07:11:40;;;;;;;2.47;0.43;;;;;;;40.20;12.68;99166.34;5011228;28;20037;-71
2024/04/05 07:14:05;;;;;;;1.45;0.28;;;;;;;40.26;12.00;99167.84;5010313;28;20489;-71
2024/04/05 07:16:31;;;;;;;1.27;0.40;;;;;;;39.75;12.43;99172.31;5012987;28;20038;-71
2024/04/05 07:18:56;;;;;;;1.20;0.40;;;;;;;39.63;12.68;99177.44;5027632;28;20417;-71
2024/04/05 07:21:22;;;;;;;1.75;0.43;;;;;;;39.93;12.76;99178.03;5027799;28;20092;-73
2024/04/05 07:23:49;;;;;;;1.13;0.50;;;;;;;39.86;12.79;99180.34;5010681;28;20037;-73
2024/04/05 07:26:14;;;;;;;1.85;0.40;;;;;;;39.78;12.85;99173.66;5027361;28;20026;-71
2024/04/05 07:28:40;;;;;;;1.70;0.47;;;;;;;39.96;12.61;99182.88;5011689;28;20398;-72
2024/04/05 07:31:05;;;;;;;1.42;0.35;;;;;;;40.09;12.62;99187.59;5009885;28;20026;-71
2024/04/05 07:33:31;;;;;;;4.57;0.43;;;;;;;40.37;12.42;99197.75;5011272;28;20091;-70
2024/04/05 07:35:57;;;;;;;1.80;0.38;;;;;;;40.37;12.49;99173.94;5013012;28;20124;-72
2024/04/05 07:38:22;;;;;;;1.40;0.30;;;;;;;40.59;12.54;99188.84;5027882;28;20460;-70
2024/04/05 07:40:48;;;;;;;0.93;0.25;;;;;;;40.89;12.55;99187.41;4995920;28;20033;-71
2024/04/05 07:43:14;;;;;;;0.40;0.10;;;;;;;41.26;12.38;99176.44;5011588;28;20049;-71
2024/04/05 07:45:39;;;;;;;0.80;0.30;;;;;;;41.73;11.59;99185.97;5011281;28;20301;-71
2024/04/05 07:48:05;;;;;;;1.03;0.30;;;;;;;42.59;11.12;99181.22;5027388;28;20040;-71
2024/04/05 07:50:30;;;;;;;2.00;0.40;;;;;;;43.67;10.40;99183.34;5010834;28;20049;-71
2024/04/05 07:52:56;;;;;;;1.23;0.40;;;;;;;43.64;10.59;99181.25;5026623;28;20050;-71
2024/04/05 07:55:21;;;;;;;1.80;0.30;;;;;;;43.11;10.66;99183.25;4994232;28;20513;-71
2024/04/05 07:57:47;;;;;;;2.83;0.20;;;;;;;42.99;10.80;99186.63;5027743;28;20030;-72
2024/04/05 08:00:15;;;;;;;0.60;0.20;;;;;;;42.78;10.77;99180.09;5027513;28;20513;-70
2024/04/05 08:02:46;;;;;;;1.25;0.22;;;;;;;42.72;11.22;99193.19;4995276;28;20042;-72
2024/04/05 08:05:11;;;;;;;0.95;0.30;;;;;;;42.55;11.17;99195.88;5026934;28;20456;-72
2024/04/05 08:07:37;;;;;;;0.97;0.10;;;;;;;42.44;11.50;99190.66;5011907;28;20030;-72
2024/04/05 08:10:03;;;;;;;4.97;0.38;;;;;;;42.48;11.45;99199.09;5027988;28;20030;-72
2024/04/05 08:12:28;;;;;;;1.15;0.20;;;;;;;42.33;11.40;99199.53;5027844;28;20022;-71
2024/04/05 08:14:54;;;;;;;3.57;0.30;;;;;;;42.05;11.73;99188.72;5010402;28;20034;-72
2024/04/05 08:17:19;;;;;;;1.03;0.20;;;;;;;41.61;11.93;99201.34;5027991;28;20030;-71
2024/04/05 08:19:45;;;;;;;3.40;0.30;;;;;;;41.42;11.82;99191.41;5010994;28;20034;-72
2024/04/05 08:22:11;;;;;;;0.65;0.15;;;;;;;41.35;11.86;99211.00;5009741;28;20045;-72
2024/04/05 08:24:36;;;;;;;1.73;0.22;;;;;;;41.18;12.38;99205.34;5009958;28;20456;-70
2024/04/05 08:27:02;;;;;;;0.50;0.10;;;;;;;41.31;12.17;99200.97;4995076;28;20531;-71
2024/04/05 08:29:28;;;;;;;1.27;0.30;;;;;;;41.33;12.08;99201.50;5011782;28;20033;-70
2024/04/05 08:31:53;;;;;;;0.57;0.20;;;;;;;41.47;11.84;99195.97;5027532;28;20037;-71
2024/04/05 08:34:20;;;;;;;0.63;0.30;;;;;;;41.76;11.91;99190.84;5027181;28;20099;-71
2024/04/05 08:36:48;;;;;;;0.98;0.20;;;;;;;42.06;11.67;99179.38;5027450;28;20037;-72
2024/04/05 08:39:17;;;;;;;1.88;0.20;;;;;;;42.40;11.47;99177.91;5010403;28;20038;-71
2024/04/05 08:41:43;;;;;;;0.55;0.20;;;;;;;41.78;11.46;99187.78;5011143;28;20074;-72
2024/04/05 08:44:11;;;;;;;0.45;0.10;;;;;;;41.51;11.79;99184.03;5011274;28;20041;-74
2024/04/05 08:46:37;;;;;;;0.98;0.25;;;;;;;41.59;11.80;99177.84;5026278;28;20127;-75
2024/04/05 08:49:03;;;;;;;1.38;0.20;;;;;;;41.64;11.90;99182.38;5026604;28;20489;-71
2024/04/05 08:51:28;;;;;;;1.17;0.30;;;;;;;41.61;11.64;99166.56;5027224;28;20034;-70
2024/04/05 08:53:54;;;;;;;2.70;0.30;;;;;;;41.09;12.03;99172.44;5025743;28;20100;-72
2024/04/05 08:56:19;;;;;;;0.50;0.20;;;;;;;40.76;12.16;99172.59;4993715;28;20034;-70
2024/04/05 08:58:45;;;;;;;1.23;0.15;;;;;;;40.23;12.53;99173.13;5027136;28;20452;-73
2024/04/05 09:01:11;;;;;;;0.50;0.20;;;;;;;40.13;12.42;99174.13;5026458;28;20054;-70
2024/04/05 09:03:36;;;;;;;0.43;0.10;;;;;;;40.14;12.43;99183.97;5029381;28;20091;-71
2024/04/05 09:06:04;;;;;;;1.08;0.30;;;;;;;40.06;12.65;99182.75;5014211;28;20382;-72
2024/04/05 09:08:29;;;;;;;1.42;0.20;;;;;;;39.55;12.72;99176.25;5014609;28;20042;-71
2024/04/05 09:10:55;;;;;;;0.52;0.22;;;;;;;39.09;13.26;99185.09;5030600;28;20076;-71
2024/04/05 09:13:21;;;;;;;5.22;0.30;;;;;;;38.55;13.59;99170.78;5030603;28;20033;-71
2024/04/05 09:15:50;;;;;;;2.90;0.30;;;;;;;38.07;13.56;99189.84;5014323;28;20041;-70
2024/04/05 09:18:27;;;;;;;2.25;0.15;;;;;;;37.53;14.01;99180.75;5015377;28;20030;-70
2024/04/05 09:20:52;;;;;;;;;;;;;;;37.23;14.16;99183.44;5014541;28;20042;-71
2024/04/05 09:23:18;;;;;;;0.10;0.10;;;;;;;36.95;14.23;99195.81;5030561;28;19931;-72
2024/04/05 09:25:43;;;;;;;0.43;0.10;;;;;;;36.52;14.78;99184.56;5013887;28;20042;-71
2024/04/05 09:28:15;;;;;;;1.35;0.00;;;;;;;36.12;15.20;99195.25;5013665;28;20478;-71
2024/04/05 09:30:40;;;;;;;0.50;0.10;;;;;;;35.81;15.54;99203.41;5013729;28;20264;-71
2024/04/05 09:33:06;;;;;;;1.45;0.20;;;;;;;35.56;15.60;99192.53;5014180;28;20116;-71
2024/04/05 09:35:33;;;;;;;1.77;0.10;;;;;;;35.26;15.61;99189.50;5013897;28;20490;-72
2024/04/05 09:37:59;;;;;;;0.85;0.10;;;;;;;35.11;15.92;99198.41;5030346;28;20026;-70
2024/04/05 09:40:24;;;;;;;0.90;0.13;;;;;;;34.91;16.28;99193.72;5013795;28;20091;-74
2024/04/05 09:42:52;;;;;;;1.27;0.20;;;;;;;34.86;16.01;99188.31;5013332;28;20042;-72
2024/04/05 09:45:20;;;;;;;0.82;0.20;;;;;;;34.69;16.57;99193.09;5013515;28;20088;-70
2024/04/05 09:47:46;;;;;;;1.90;0.30;;;;;;;34.57;16.74;99187.88;5013947;28;20084;-71
2024/04/05 09:50:11;;;;;;;1.73;0.28;;;;;;;34.37;16.55;99181.28;5013346;28;20571;-71
2024/04/05 09:52:40;;;;;;;0.55;0.17;;;;;;;34.22;17.07;99183.88;5013651;28;20061;-72
2024/04/05 09:55:09;;;;;;;0.70;0.20;;;;;;;34.12;17.02;99191.94;4997582;28;20033;-71
2024/04/05 09:57:34;;;;;;;0.93;0.30;;;;;;;33.98;17.00;99197.81;4997159;28;20030;-71
2024/04/05 10:00:00;;;;;;;0.85;0.13;;;;;;;34.02;16.99;99193.50;5013772;28;20036;-71
2024/04/05 10:02:25;;;;;;;0.75;0.30;;;;;;;33.96;17.24;99185.63;5013157;28;20425;-71
2024/04/05 10:04:51;;;;;;;0.95;0.20;;;;;;;34.02;17.34;99187.28;5030034;28;20022;-74
2024/04/05 10:07:24;;;;;;;0.40;0.20;;;;;;;33.91;17.50;99194.53;5013324;28;20478;-71
2024/04/05 10:09:50;;;;;;;3.03;0.57;;;;;;;33.89;17.27;99193.97;5028781;28;20096;-71
2024/04/05 10:12:17;;;;;;;2.40;1.00;;;;;;;33.93;17.01;99186.13;5012964;28;20080;-72
2024/04/05 10:14:57;;;;;;;1.63;1.10;;;;;;;34.05;17.16;99186.78;5012561;28;20108;-71
2024/04/05 10:17:29;;;;;;;2.90;1.50;;;;;;;34.22;17.53;99194.72;5028956;28;20504;-71
2024/04/05 10:20:06;;;;;;;2.05;1.50;;;;;;;34.31;17.18;99192.38;5014273;28;20030;-70
2024/04/05 10:22:32;;;;;;;4.72;2.05;;;;;;;34.22;17.53;99194.72;5028771;28;20478;-71
2024/04/05 10:24:57;;;;;;;4.53;1.83;;;;;;;33.97;17.39;99185.34;4996703;28;20034;-70
2024/04/05 10:27:24;;;;;;;3.03;1.50;;;;;;;34.10;17.55;99186.78;5028779;28;20040;-70
2024/04/05 10:30:03;;;;;;;2.47;1.50;;;;;;;34.20;17.35;99180.63;5012437;28;20041;-69
2024/04/05 10:32:33;;;;;;;2.10;1.50;;;;;;;34.43;17.37;99182.94;5011244;28;20049;-70
2024/04/05 10:35:08;;;;;;;6.28;2.10;;;;;;;34.66;17.09;99175.44;5013293;28;20509;-70
2024/04/05 10:37:38;;;;;;;2.05;1.55;;;;;;;34.75;17.20;99175.78;5011499;28;20033;-71
2024/04/05 10:40:10;;;;;;;2.05;1.55;;;;;;;34.86;17.48;99182.88;5012016;28;20038;-70
2024/04/05 10:42:36;;;;;;;2.70;1.70;;;;;;;35.00;17.37;99172.34;5028165;28;20038;-70
2024/04/05 10:45:05;;;;;;;2.00;1.50;;;;;;;35.18;16.96;99175.63;5028334;28;20075;-71
2024/04/05 10:47:35;;;;;;;2.50;1.90;;;;;;;35.20;16.96;99176.97;5011924;28;20497;-71
2024/04/05 10:50:01;;;;;;;1.95;1.50;;;;;;;35.24;16.93;99169.94;5012500;28;20386;-70
2024/04/05 10:52:26;;;;;;;3.97;1.50;;;;;;;35.23;16.94;99159.34;5028805;28;20033;-70
2024/04/05 10:54:52;;;;;;;3.50;1.35;;;;;;;35.15;17.00;99168.84;5012146;28;20022;-71
2024/04/05 10:57:19;;;;;;;1.80;1.40;;;;;;;35.03;16.98;99166.38;5028481;28;20066;-71
2024/04/05 10:59:44;;;;;;;2.70;1.73;;;;;;;34.83;17.57;99169.03;5011161;28;20401;-70
2024/04/05 11:02:10;;;;;;;4.47;1.70;;;;;;;34.64;17.02;99155.94;5028763;28;20062;-70
2024/04/05 11:04:36;;;;;;;2.38;1.33;;;;;;;34.55;17.23;99163.75;5011875;28;20088;-70
2024/04/05 11:07:02;;;;;;;3.72;1.40;;;;;;;34.37;17.49;99167.75;5011997;28;20026;-71
2024/04/05 11:09:35;;;;;;;3.65;1.40;;;;;;;34.13;17.79;99169.19;5028576;28;20030;-73
2024/04/05 11:12:02;;;;;;;4.32;1.40;;;;;;;33.78;17.96;99171.41;5028293;28;20033;-70
2024/04/05 11:14:27;;;;;;;2.13;1.42;;;;;;;33.53;17.98;99158.47;5011572;28;20037;-71
2024/04/05 11:16:59;;;;;;;1.67;0.98;;;;;;;33.34;18.00;99158.84;5028316;28;20040;-71
2024/04/05 11:19:25;;;;;;;1.60;1.10;;;;;;;33.15;18.65;99155.66;5013268;28;20037;-71
2024/04/05 11:21:52;;;;;;;1.58;1.10;;;;;;;33.02;18.38;99147.13;5028255;28;20107;-70
2024/04/05 11:24:18;;;;;;;0.98;0.70;;;;;;;32.63;18.55;99154.28;5027984;28;20405;-71
2024/04/05 11:26:49;;;;;;;1.23;0.73;;;;;;;32.38;18.75;99162.03;5011868;28;20044;-71
2024/04/05 11:29:14;;;;;;;1.15;0.70;;;;;;;32.08;18.86;99163.19;5011720;28;20039;-72